Time;durP1;ratioP1;P1;durP2;ratioP2;P2;SDS_P1;SDS_P2;PMS_P1;PMS_P2;Temp;Humidity;BMP_temperature;BMP_pressure;BME280_temperature;BME280_humidity;BME280_pressure;Samples;Min_cycle;Max_cycle;Signal;HPM_P1;HPM_P2
2023/07/09 00:01:13;;;;;;;;;;;;;;;-144.99;78.86;52089.38;5058470;28;20409;-77
2023/07/09 00:03:39;;;;;;;;;;;;;;;-144.99;78.95;52138.28;5044394;28;19928;-77
2023/07/09 00:06:08;;;;;;;;;;;;;;;-144.99;78.93;52091.41;5056448;28;20009;-78
2023/07/09 00:08:35;;;;;;;;;;;;;;;-144.99;78.82;52111.78;5056776;28;19963;-78
2023/07/09 00:11:01;;;;;;;;;;;;;;;-144.99;78.54;52109.75;5049007;28;20468;-79
2023/07/09 00:13:28;;;;;;;;;;;;;;;-144.99;78.85;52117.91;5047361;28;20000;-74
2023/07/09 00:15:59;;;;;;;;;;;;;;;-144.99;79.12;52089.38;5058241;28;20042;-77
2023/07/09 00:18:26;;;;;;;;;;;;;;;-144.99;78.27;52081.22;5057085;28;19978;-77
2023/07/09 00:20:52;;;;;;;;;;;;;;;-144.99;79.03;52126.06;5055208;28;20051;-76
2023/07/09 00:23:20;;;;;;;;;;;;;;;-144.99;79.26;52136.25;5053905;28;19948;-76
2023/07/09 00:25:47;;;;;;;;;;;;;;;-144.99;79.39;52064.91;5055184;28;19963;-76
2023/07/09 00:28:15;;;;;;;;;;;;;;;-144.99;79.39;52093.44;5056402;28;20413;-76
2023/07/09 00:30:42;;;;;;;;;;;;;;;-144.99;79.32;52146.44;5053021;28;20030;-76
2023/07/09 00:33:11;;;;;;;;;;;;;;;-144.99;79.05;52109.75;5059153;28;19931;-78
2023/07/09 00:35:40;;;;;;;;;;;;;;;-144.99;79.14;52115.88;5052526;28;20429;-76
2023/07/09 00:38:08;;;;;;;;;;;;;;;-144.99;78.92;52085.31;5055961;28;19956;-76
2023/07/09 00:40:35;;;;;;;;;;;;;;;-144.99;79.27;52121.97;5059075;28;19986;-75
2023/07/09 00:43:02;;;;;;;;;;;;;;;-144.99;79.39;52103.66;5054985;28;20452;-76
2023/07/09 00:45:28;;;;;;;;;;;;;;;-144.99;79.21;52077.16;5056786;28;19989;-76
2023/07/09 00:47:56;;;;;;;;;;;;;;;-144.99;79.24;52077.16;5064803;28;19962;-75
2023/07/09 00:50:30;;;;;;;;;;;;;;;-144.99;78.89;52105.69;5060805;28;19961;-74
2023/07/09 00:53:02;;;;;;;;;;;;;;;-144.99;78.88;52101.59;5058259;28;20448;-74
2023/07/09 00:55:31;;;;;;;;;;;;;;;-144.99;79.08;52134.22;5054088;28;20391;-73
2023/07/09 00:58:00;;;;;;;;;;;;;;;-144.99;79.19;52113.84;5055570;28;19974;-74
2023/07/09 01:00:29;;;;;;;;;;;;;;;-144.99;78.80;52066.97;5060911;28;19961;-74
2023/07/09 01:02:58;;;;;;;;;;;;;;;-144.99;78.86;52162.75;5051549;28;19995;-74
2023/07/09 01:05:25;;;;;;;;;;;;;;;-144.99;79.03;52130.13;5059643;28;20012;-75
2023/07/09 01:07:53;;;;;;;;;;;;;;;-144.99;78.85;52097.53;5043315;28;19950;-73
2023/07/09 01:10:20;;;;;;;;;;;;;;;-144.99;78.66;52134.22;5051541;28;19928;-73
2023/07/09 01:12:48;;;;;;;;;;;;;;;-144.99;78.42;52097.53;5050817;28;20002;-75
2023/07/09 01:15:15;;;;;;;;;;;;;;;-144.99;78.42;52130.13;5054223;28;20010;-75
2023/07/09 01:17:44;;;;;;;;;;;;;;;-144.99;78.64;52130.13;5052706;28;20033;-75
2023/07/09 01:20:16;;;;;;;;;;;;;;;-144.99;78.74;52142.38;4710965;28;10000480;-79
2023/07/09 01:22:44;;;;;;;;;;;;;;;-144.99;78.56;52101.59;5053308;28;19972;-75
2023/07/09 01:25:11;;;;;;;;;;;;;;;-144.99;78.48;52117.91;5056075;28;20415;-75
2023/07/09 01:27:39;;;;;;;;;;;;;;;-144.99;78.15;52117.91;5054761;28;20363;-75
2023/07/09 01:30:07;;;;;;;;;;;;;;;-144.99;78.09;52119.94;5057742;28;19941;-75
2023/07/09 01:32:34;;;;;;;;;;;;;;;-144.99;77.99;52117.91;5063382;28;20041;-75
2023/07/09 01:35:04;;;;;;;;;;;;;;;-144.99;77.97;52128.09;5057938;28;20046;-75
2023/07/09 01:37:32;;;;;;;;;;;;;;;-144.99;77.97;52130.13;5061754;28;20546;-75
2023/07/09 01:40:00;;;;;;;;;;;;;;;-144.99;77.92;52142.38;5064384;28;20425;-75
2023/07/09 01:42:28;;;;;;;;;;;;;;;-144.99;77.70;52117.91;5060447;28;19946;-74
2023/07/09 01:44:55;;;;;;;;;;;;;;;-144.99;77.79;52113.84;5062132;28;19925;-75
2023/07/09 01:47:23;;;;;;;;;;;;;;;-144.99;77.37;52093.44;5059566;28;20383;-74
2023/07/09 01:49:50;;;;;;;;;;;;;;;-144.99;77.63;52097.53;5060825;28;19943;-75
2023/07/09 01:52:18;;;;;;;;;;;;;;;-144.99;77.04;52134.22;5064243;28;19945;-74
2023/07/09 01:54:49;;;;;;;;;;;;;;;-144.99;76.86;52113.84;5062142;28;20001;-75
2023/07/09 01:57:22;;;;;;;;;;;;;;;-144.99;76.75;52097.53;5064556;28;19931;-72
2023/07/09 01:59:49;;;;;;;;;;;;;;;-144.99;76.54;52156.63;5060478;28;19955;-73
2023/07/09 02:02:18;;;;;;;;;;;;;;;-144.99;76.58;52105.69;5061696;28;19967;-74
2023/07/09 02:04:45;;;;;;;;;;;;;;;-144.99;76.48;52089.38;5057025;28;20016;-76
2023/07/09 02:07:12;;;;;;;;;;;;;;;-144.99;76.59;52101.59;5055836;28;19952;-73
2023/07/09 02:09:38;;;;;;;;;;;;;;;-144.99;76.41;52079.19;5058853;28;19955;-73
2023/07/09 02:12:05;;;;;;;;;;;;;;;-144.99;76.44;52132.19;5057993;28;19937;-73
2023/07/09 02:14:33;;;;;;;;;;;;;;;-144.99;76.55;52130.13;5054809;28;19983;-73
2023/07/09 02:17:00;;;;;;;;;;;;;;;-144.99;76.52;52126.06;5058224;28;19958;-73
2023/07/09 02:19:26;;;;;;;;;;;;;;;-144.99;76.59;52093.44;5061816;28;19932;-73
2023/07/09 02:21:53;;;;;;;;;;;;;;;-144.99;76.45;52097.53;5061649;28;19948;-73
2023/07/09 02:24:19;;;;;;;;;;;;;;;-144.99;76.31;52121.97;5060394;28;19964;-74
2023/07/09 02:26:46;;;;;;;;;;;;;;;-144.99;76.45;52109.75;5061609;28;19956;-73
2023/07/09 02:29:12;;;;;;;;;;;;;;;-144.99;76.70;52101.59;5057910;28;20397;-73
2023/07/09 02:31:40;;;;;;;;;;;;;;;-144.99;76.07;52095.50;5064721;28;20297;-73
2023/07/09 02:34:07;;;;;;;;;;;;;;;-144.99;76.38;52134.22;5056419;28;19981;-74
2023/07/09 02:36:33;;;;;;;;;;;;;;;-144.99;76.54;52134.22;5062193;28;20413;-74
2023/07/09 02:39:00;;;;;;;;;;;;;;;-144.99;76.37;52154.59;5062068;28;20508;-74
2023/07/09 02:41:27;;;;;;;;;;;;;;;-144.99;76.22;52126.06;5061966;28;20417;-74
2023/07/09 02:43:53;;;;;;;;;;;;;;;-144.99;75.91;52121.97;5058526;28;19943;-76
2023/07/09 02:46:20;;;;;;;;;;;;;;;-144.99;75.83;52179.06;5059005;28;19936;-73
2023/07/09 02:48:48;;;;;;;;;;;;;;;-144.99;75.90;52117.91;5058162;28;19958;-73
2023/07/09 02:51:14;;;;;;;;;;;;;;;-144.99;76.00;52121.97;5057650;28;19945;-74
2023/07/09 02:53:41;;;;;;;;;;;;;;;-144.99;75.38;52130.13;5047054;28;19943;-73
2023/07/09 02:56:07;;;;;;;;;;;;;;;-144.99;75.32;52109.75;5055904;28;19929;-74
2023/07/09 02:58:34;;;;;;;;;;;;;;;-144.99;75.26;52105.69;5060892;28;19964;-75
2023/07/09 03:01:01;;;;;;;;;;;;;;;-144.99;75.20;52134.22;5062780;28;19956;-74
2023/07/09 03:03:28;;;;;;;;;;;;;;;-144.99;75.60;52107.72;5056844;28;19962;-74
2023/07/09 03:05:56;;;;;;;;;;;;;;;-144.99;75.67;52101.59;5058220;28;19971;-73
2023/07/09 03:08:22;;;;;;;;;;;;;;;-144.99;75.88;52146.44;5052535;28;19943;-73
2023/07/09 03:10:49;;;;;;;;;;;;;;;-144.99;75.93;52109.75;5054287;28;19932;-74
2023/07/09 03:13:16;;;;;;;;;;;;;;;-144.99;76.00;52097.53;5055195;28;20041;-74
2023/07/09 03:15:42;;;;;;;;;;;;;;;-144.99;76.02;52142.38;5057899;28;19975;-74
2023/07/09 03:18:09;;;;;;;;;;;;;;;-144.99;76.40;52128.09;5059213;28;19956;-75
2023/07/09 03:20:35;;;;;;;;;;;;;;;-144.99;76.31;52117.91;5060523;28;19962;-75
2023/07/09 03:23:04;;;;;;;;;;;;;;;-144.99;76.13;52134.22;5060366;28;19956;-74
2023/07/09 03:25:31;;;;;;;;;;;;;;;-144.99;76.11;52119.94;5053595;28;19959;-74
2023/07/09 03:27:57;;;;;;;;;;;;;;;-144.99;75.93;52105.69;5051342;22;19960;-67
2023/07/09 03:30:24;;;;;;;;;;;;;;;-144.99;75.85;52154.59;4991089;28;20047;-67
2023/07/09 03:32:50;;;;;;;;;;;;;;;-144.99;75.65;52166.81;4991659;28;19939;-69
2023/07/09 03:35:17;;;;;;;;;;;;;;;-144.99;75.57;52126.06;4991688;28;20336;-67
2023/07/09 03:37:44;;;;;;;;;;;;;;;-144.99;75.55;52109.75;4990937;28;19954;-68
2023/07/09 03:40:12;;;;;;;;;;;;;;;-144.99;75.52;52146.44;4990997;28;19988;-70
2023/07/09 03:42:39;;;;;;;;;;;;;;;-144.99;75.70;52142.38;4998778;28;19949;-67
2023/07/09 03:45:06;;;;;;;;;;;;;;;-144.99;75.83;52126.06;4990970;28;19936;-68
2023/07/09 03:47:32;;;;;;;;;;;;;;;-144.99;75.59;52146.44;5003536;28;19945;-66
2023/07/09 03:49:59;;;;;;;;;;;;;;;-144.99;75.66;52183.13;4991498;28;20287;-67
2023/07/09 03:52:25;;;;;;;;;;;;;;;-144.99;75.47;52101.59;4990390;28;19929;-66
2023/07/09 03:54:52;;;;;;;;;;;;;;;-144.99;75.60;52134.22;4989939;28;20396;-67
2023/07/09 03:57:20;;;;;;;;;;;;;;;-144.99;75.85;52115.88;4990030;28;19936;-66
2023/07/09 03:59:47;;;;;;;;;;;;;;;-144.99;75.92;52166.81;4989891;28;19949;-67
2023/07/09 04:02:13;;;;;;;;;;;;;;;-144.99;75.99;52105.69;4995078;28;19944;-66
2023/07/09 04:04:40;;;;;;;;;;;;;;;-144.99;75.62;52166.81;4994704;28;19936;-66
2023/07/09 04:07:06;;;;;;;;;;;;;;;-144.99;74.85;52130.13;4990098;28;19925;-66
2023/07/09 04:09:33;;;;;;;;;;;;;;;-144.99;74.55;52117.91;4989986;28;20047;-62
2023/07/09 04:12:03;;;;;;;;;;;;;;;-144.99;74.86;52138.28;4988347;28;19933;-61
2023/07/09 04:14:31;;;;;;;;;;;;;;;-144.99;75.09;52130.13;4994390;28;20030;-61
2023/07/09 04:16:58;;;;;;;;;;;;;;;-144.99;75.10;52160.72;4999824;28;19937;-63
2023/07/09 04:19:24;;;;;;;;;;;;;;;-144.99;75.16;52119.94;4992716;28;20014;-61
2023/07/09 04:21:51;;;;;;;;;;;;;;;-144.99;75.22;52130.13;4989919;28;19963;-60
2023/07/09 04:24:18;;;;;;;;;;;;;;;-144.99;74.50;52138.28;4989781;28;20389;-59
2023/07/09 04:26:45;;;;;;;;;;;;;;;-144.99;74.23;52154.59;4988556;28;20278;-63
2023/07/09 04:29:11;;;;;;;;;;;;;;;-144.99;74.20;52109.75;4998013;28;19964;-62
2023/07/09 04:31:39;;;;;;;;;;;;;;;-144.99;74.82;52146.44;4995190;28;19966;-60
2023/07/09 04:34:06;;;;;;;;;;;;;;;-144.99;74.67;52146.44;4989756;28;19938;-61
2023/07/09 04:36:33;;;;;;;;;;;;;;;-144.99;75.08;52170.91;4990044;28;19941;-68
2023/07/09 04:38:59;;;;;;;;;;;;;;;-144.99;74.94;52154.59;4995416;28;19941;-68
2023/07/09 04:41:26;;;;;;;;;;;;;;;-144.99;74.65;52138.28;4989940;28;19967;-68
2023/07/09 04:43:52;;;;;;;;;;;;;;;-144.99;74.55;52109.75;4985850;28;20439;-68
2023/07/09 04:46:19;;;;;;;;;;;;;;;-144.99;74.54;52117.91;4985757;28;19926;-69
2023/07/09 04:48:47;;;;;;;;;;;;;;;-144.99;74.77;52134.22;4985653;28;20388;-69
2023/07/09 04:51:14;;;;;;;;;;;;;;;-144.99;74.55;52089.38;4992956;28;19955;-69
2023/07/09 04:53:40;;;;;;;;;;;;;;;-144.99;74.25;52128.09;4980629;28;19937;-69
2023/07/09 04:56:07;;;;;;;;;;;;;;;-144.99;74.02;52134.22;4986420;28;20451;-66
2023/07/09 04:58:34;;;;;;;;;;;;;;;-144.99;74.12;52150.53;4989822;28;19944;-66
2023/07/09 05:01:01;;;;;;;;;;;;;;;-144.99;73.67;52085.31;4989625;28;19937;-63
2023/07/09 05:03:28;;;;;;;;;;;;;;;-144.99;73.15;52117.91;4989566;28;20041;-64
2023/07/09 05:05:56;;;;;;;;;;;;;;;-144.99;72.82;52134.22;4993374;28;20455;-67
2023/07/09 05:08:22;;;;;;;;;;;;;;;-144.99;72.63;52101.59;5003199;28;19930;-65
2023/07/09 05:10:51;;;;;;;;;;;;;;;-144.99;72.43;52109.75;4997797;28;20318;-64
2023/07/09 05:13:17;;;;;;;;;;;;;;;-144.99;72.31;52128.09;4993211;28;19961;-67
2023/07/09 05:15:45;;;;;;;;;;;;;;;-144.99;72.17;52113.84;4993193;28;19929;-64
2023/07/09 05:18:12;;;;;;;;;;;;;;;-144.99;72.03;52111.78;4993076;28;19967;-65
2023/07/09 05:20:39;;;;;;;;;;;;;;;-144.99;71.81;52148.47;4998113;28;19925;-64
2023/07/09 05:23:07;;;;;;;;;;;;;;;-144.99;71.73;52113.84;5005700;28;19942;-69
2023/07/09 05:25:34;;;;;;;;;;;;;;;-144.99;71.49;52081.22;5002259;28;20292;-65
2023/07/09 05:28:00;;;;;;;;;;;;;;;-144.99;71.65;52073.06;4994478;28;19945;-65
2023/07/09 05:30:27;;;;;;;;;;;;;;;-144.99;71.54;52105.69;4994240;28;19929;-65
2023/07/09 05:32:57;;;;;;;;;;;;;;;-144.99;71.19;52097.53;4992805;28;19945;-66
2023/07/09 05:35:25;;;;;;;;;;;;;;;-144.99;71.26;52121.97;4991951;28;19940;-66
2023/07/09 05:37:51;;;;;;;;;;;;;;;-144.99;71.39;52089.38;4992632;28;20381;-69
2023/07/09 05:40:19;;;;;;;;;;;;;;;-144.99;71.15;52081.22;4977819;28;19964;-68
2023/07/09 05:42:46;;;;;;;;;;;;;;;-144.99;70.67;52126.06;4992301;28;20031;-66
2023/07/09 05:45:13;;;;;;;;;;;;;;;-144.99;70.96;52130.13;4993464;28;19964;-67
2023/07/09 05:47:39;;;;;;;;;;;;;;;-144.99;70.87;52093.44;4993189;28;19936;-67
2023/07/09 05:50:06;;;;;;;;;;;;;;;-144.99;70.73;52060.84;4991493;28;19964;-68
2023/07/09 05:52:33;;;;;;;;;;;;;;;-144.99;70.78;52101.59;5006328;28;20406;-66
2023/07/09 05:55:00;;;;;;;;;;;;;;;-144.99;70.66;52113.84;4992363;28;19952;-65
2023/07/09 05:57:28;;;;;;;;;;;;;;;-144.99;70.57;52048.63;4992417;28;19971;-66
2023/07/09 05:59:54;;;;;;;;;;;;;;;-144.99;70.45;52101.59;4992379;28;19965;-66
2023/07/09 06:02:22;;;;;;;;;;;;;;;-144.99;70.51;52097.53;4992355;28;19959;-66
2023/07/09 06:04:49;;;;;;;;;;;;;;;-144.99;70.52;52085.31;4992164;28;19936;-66
2023/07/09 06:07:18;;;;;;;;;;;;;;;-144.99;70.35;52081.22;4998948;28;19961;-64
2023/07/09 06:09:45;;;;;;;;;;;;;;;-144.99;69.93;52097.53;4993098;28;19940;-65
2023/07/09 06:12:12;;;;;;;;;;;;;;;-144.99;69.68;52093.44;4995892;28;19934;-66
2023/07/09 06:14:40;;;;;;;;;;;;;;;-144.99;69.73;52085.31;4993028;28;19946;-68
2023/07/09 06:17:07;;;;;;;;;;;;;;;-144.99;69.74;52052.69;4993478;28;19947;-68
2023/07/09 06:19:34;;;;;;;;;;;;;;;-144.99;69.70;52056.78;4991820;28;20425;-66
2023/07/09 06:22:01;;;;;;;;;;;;;;;-144.99;69.56;52083.25;4996738;28;19961;-66
2023/07/09 06:24:27;;;;;;;;;;;;;;;-144.99;69.68;52089.38;4991369;28;19953;-67
2023/07/09 06:26:54;;;;;;;;;;;;;;;-144.99;69.56;52075.09;4993140;28;19966;-66
2023/07/09 06:29:20;;;;;;;;;;;;;;;-144.99;69.46;52056.78;4986943;28;19940;-67
2023/07/09 06:31:48;;;;;;;;;;;;;;;-144.99;69.34;52077.16;4995272;28;19954;-71
2023/07/09 06:34:15;;;;;;;;;;;;;;;-144.99;69.23;52081.22;4989349;28;19965;-70
2023/07/09 06:36:42;;;;;;;;;;;;;;;-144.99;68.98;52064.91;5000095;28;20313;-68
2023/07/09 06:39:08;;;;;;;;;;;;;;;-144.99;68.68;52073.06;4992313;28;20309;-67
2023/07/09 06:41:38;;;;;;;;;;;;;;;-144.99;68.32;52069.00;4991920;28;19969;-68
2023/07/09 06:44:05;;;;;;;;;;;;;;;-144.99;68.27;52056.78;4991986;28;19963;-67
2023/07/09 06:46:32;;;;;;;;;;;;;;;-144.99;68.26;52069.00;4992116;28;19951;-68
2023/07/09 06:49:00;;;;;;;;;;;;;;;-144.99;68.07;52060.84;4983154;28;19974;-69
2023/07/09 06:51:26;;;;;;;;;;;;;;;-144.99;68.00;52056.78;4995911;28;19979;-69
2023/07/09 06:53:53;;;;;;;;;;;;;;;-144.99;68.43;52054.72;4992176;28;19960;-68
2023/07/09 06:56:19;;;;;;;;;;;;;;;-144.99;67.66;52052.69;4990959;28;19945;-68
2023/07/09 06:58:46;;;;;;;;;;;;;;;-144.99;67.54;52060.84;5002919;28;20462;-68
2023/07/09 07:01:13;;;;;;;;;;;;;;;-144.99;67.45;52030.28;5000174;28;20326;-68
2023/07/09 07:03:40;;;;;;;;;;;;;;;-144.99;67.39;52028.22;4990759;28;19925;-68
2023/07/09 07:06:09;;;;;;;;;;;;;;;-144.99;67.26;52056.78;4998813;28;19940;-67
2023/07/09 07:08:36;;;;;;;;;;;;;;;-144.99;67.02;52036.38;4992529;28;19952;-67
2023/07/09 07:11:04;;;;;;;;;;;;;;;-144.99;67.53;52042.50;4988323;28;20421;-67
2023/07/09 07:13:31;;;;;;;;;;;;;;;-144.99;66.69;52044.53;4991105;28;19951;-67
2023/07/09 07:15:58;;;;;;;;;;;;;;;-144.99;66.92;52073.06;4995434;28;20393;-67
2023/07/09 07:18:25;;;;;;;;;;;;;;;-144.99;66.88;52020.09;4996569;28;19952;-68
2023/07/09 07:20:51;;;;;;;;;;;;;;;-144.99;66.68;52044.53;4991562;28;19969;-68
2023/07/09 07:23:19;;;;;;;;;;;;;;;-144.99;66.84;52052.69;4995749;28;19962;-68
2023/07/09 07:25:46;;;;;;;;;;;;;;;-144.99;66.59;52036.38;4988849;28;19987;-68
2023/07/09 07:28:13;;;;;;;;;;;;;;;-144.99;66.12;52069.00;4988384;28;19951;-69
2023/07/09 07:30:40;;;;;;;;;;;;;;;-144.99;66.39;52003.78;4988028;28;20006;-69
2023/07/09 07:33:06;;;;;;;;;;;;;;;-144.99;66.79;52016.00;4989301;28;19948;-69
2023/07/09 07:35:33;;;;;;;;;;;;;;;-144.99;66.52;52007.84;4994219;28;19940;-69
2023/07/09 07:37:59;;;;;;;;;;;;;;;-144.99;66.31;52036.38;4991582;28;20341;-68
2023/07/09 07:40:27;;;;;;;;;;;;;;;-144.99;66.59;52016.00;4990878;28;19960;-69
2023/07/09 07:42:54;;;;;;;;;;;;;;;-144.99;66.35;52028.22;4990598;28;19952;-70
2023/07/09 07:45:21;;;;;;;;;;;;;;;-144.99;66.56;52036.38;4991349;28;19932;-70
2023/07/09 07:47:50;;;;;;;;;;;;;;;-144.99;66.71;52011.94;4995177;28;19933;-69
2023/07/09 07:50:16;;;;;;;;;;;;;;;-144.99;66.14;52036.38;4993723;28;20376;-69
2023/07/09 07:52:43;;;;;;;;;;;;;;;-144.99;66.44;52040.47;5001583;28;20125;-70
2023/07/09 07:55:10;;;;;;;;;;;;;;;-144.99;67.09;52032.31;4993823;28;19930;-70
2023/07/09 07:57:38;;;;;;;;;;;;;;;-144.99;66.89;52022.13;4991867;28;19937;-69
2023/07/09 08:00:05;;;;;;;;;;;;;;;-144.99;66.57;52036.38;4990915;28;19930;-69
2023/07/09 08:02:32;;;;;;;;;;;;;;;-144.99;66.52;52018.03;4995282;28;19930;-70
2023/07/09 08:04:58;;;;;;;;;;;;;;;-144.99;65.71;51987.47;4996181;28;19952;-70
2023/07/09 08:07:25;;;;;;;;;;;;;;;-144.99;66.42;52001.75;5000042;28;19944;-69
2023/07/09 08:09:51;;;;;;;;;;;;;;;-144.99;65.66;51985.44;4989169;28;19955;-72
2023/07/09 08:12:18;;;;;;;;;;;;;;;-144.99;66.21;52020.09;4990759;28;19940;-71
2023/07/09 08:14:47;;;;;;;;;;;;;;;-144.99;66.04;52003.78;4980766;28;19962;-71
2023/07/09 08:17:13;;;;;;;;;;;;;;;-144.99;66.08;52003.78;4984953;28;20026;-70
2023/07/09 08:19:47;;;;;;;;;;;;;;;-144.99;65.81;52016.00;4989798;28;19926;-71
2023/07/09 08:22:14;;;;;;;;;;;;;;;-144.99;65.80;52030.28;5005993;28;19936;-71
2023/07/09 08:24:40;;;;;;;;;;;;;;;-144.99;66.41;51997.66;4996063;28;20300;-71
2023/07/09 08:27:07;;;;;;;;;;;;;;;-144.99;65.63;51995.63;4992569;28;19944;-70
2023/07/09 08:29:34;;;;;;;;;;;;;;;-144.99;65.88;52001.75;4993774;28;19936;-71
2023/07/09 08:32:02;;;;;;;;;;;;;;;-144.99;65.88;51999.69;4984657;28;19941;-72
2023/07/09 08:34:29;;;;;;;;;;;;;;;-144.99;65.12;51971.16;4988183;28;19944;-70
2023/07/09 08:36:55;;;;;;;;;;;;;;;-144.99;64.89;51987.47;4988114;28;19957;-69
2023/07/09 08:39:22;;;;;;;;;;;;;;;-144.99;65.07;51991.56;4988391;28;19947;-70
2023/07/09 08:41:54;;;;;;;;;;;;;;;-144.99;64.69;51987.47;4990530;28;19966;-70
2023/07/09 08:44:29;;;;;;;;;;;;;;;-144.99;65.01;51958.94;4988145;28;20084;-70
2023/07/09 08:47:01;;;;;;;;;;;;;;;-144.99;65.09;52007.84;4988603;28;20003;-70
2023/07/09 08:49:34;;;;;;;;;;;;;;;-144.99;64.34;52016.00;4989719;28;20293;-71
2023/07/09 08:52:01;;;;;;;;;;;;;;;-144.99;65.32;51971.16;4986384;28;20423;-69
2023/07/09 08:54:30;;;;;;;;;;;;;;;-144.99;64.18;51950.78;4987489;28;19948;-66
2023/07/09 08:57:00;;;;;;;;;;;;;;;-144.99;63.76;51950.78;4992200;28;19947;-66
2023/07/09 08:59:27;;;;;;;;;;;;;;;-144.99;64.33;51950.78;4994752;28;19937;-67
2023/07/09 09:01:57;;;;;;;;;;;;;;;-144.99;63.31;51950.78;4990594;28;19972;-67
2023/07/09 09:04:25;;;;;;;;;;;;;;;-144.99;62.86;51946.72;4983999;28;20028;-67
2023/07/09 09:07:00;;;;;;;;;;;;;;;-144.99;62.63;51916.16;4989924;28;20358;-67
2023/07/09 09:09:30;;;;;;;;;;;;;;;-144.99;62.40;51930.41;4987649;28;19952;-67
2023/07/09 09:12:00;;;;;;;;;;;;;;;-144.99;62.17;51920.22;4984674;28;19948;-66
2023/07/09 09:14:28;;;;;;;;;;;;;;;-144.99;62.17;51903.91;4989088;28;20396;-67
2023/07/09 09:16:56;;;;;;;;;;;;;;;-144.99;63.28;51946.72;4992737;28;19944;-67
2023/07/09 09:19:26;;;;;;;;;;;;;;;-144.99;63.48;51979.31;4987855;28;20318;-68
2023/07/09 09:21:57;;;;;;;;;;;;;;;-144.99;63.30;51999.69;4298487;28;10000753;-68
2023/07/09 09:24:27;;;;;;;;;;;;;;;-144.99;63.91;51983.41;4993762;28;19968;-68
2023/07/09 09:26:57;;;;;;;;;;;;;;;-144.99;63.85;51950.78;4985102;28;19929;-66
2023/07/09 09:29:25;;;;;;;;;;;;;;;-144.99;63.36;51934.50;4993507;28;19976;-67
2023/07/09 09:31:54;;;;;;;;;;;;;;;-144.99;62.69;51922.25;4987467;28;20346;-68
2023/07/09 09:34:22;;;;;;;;;;;;;;;-144.99;62.79;51885.56;4992914;28;19944;-68
2023/07/09 09:36:49;;;;;;;;;;;;;;;-144.99;62.36;51905.97;4985808;28;19953;-66
2023/07/09 09:39:18;;;;;;;;;;;;;;;-144.99;61.85;51901.88;4985079;28;19946;-68
2023/07/09 09:41:45;;;;;;;;;;;;;;;-144.99;62.24;51946.72;4984641;28;19965;-67
2023/07/09 09:44:18;;;;;;;;;;;;;;;-144.99;62.56;51901.88;4985652;28;19955;-67
2023/07/09 09:46:45;;;;;;;;;;;;;;;-144.99;62.40;51946.72;4996980;28;20273;-68
2023/07/09 09:49:12;;;;;;;;;;;;;;;-144.99;62.24;51889.66;4993744;28;19966;-67
2023/07/09 09:51:41;;;;;;;;;;;;;;;-144.99;62.41;51885.56;4986981;28;19956;-67
2023/07/09 09:54:13;;;;;;;;;;;;;;;-144.99;61.99;51877.44;4987628;28;20391;-67
2023/07/09 09:56:43;;;;;;;;;;;;;;;-144.99;61.95;51879.47;4987755;28;19929;-68
2023/07/09 09:59:17;;;;;;;;;;;;;;;-144.99;61.97;51885.56;4981655;28;19952;-69
2023/07/09 10:01:43;;;;;;;;;;;;;;;-144.99;61.62;51873.34;4976939;28;19930;-68
2023/07/09 10:04:11;;;;;;;;;;;;;;;-144.99;61.74;51897.81;4988285;28;20150;-69
2023/07/09 10:06:40;;;;;;;;;;;;;;;-144.99;62.26;51910.03;4991252;28;20347;-67
2023/07/09 10:09:17;;;;;;;;;;;;;;;-144.99;61.80;51877.44;4991951;28;20303;-68
2023/07/09 10:11:49;;;;;;;;;;;;;;;-144.99;61.53;51938.56;4988952;28;20291;-69
2023/07/09 10:14:23;;;;;;;;;;;;;;;-144.99;62.14;51895.75;4985800;28;19930;-69
2023/07/09 10:16:53;;;;;;;;;;;;;;;-144.99;62.20;51873.34;4991281;28;20446;-68
2023/07/09 10:19:25;;;;;;;;;;;;;;;-144.99;62.17;51869.28;4988459;28;19949;-69
2023/07/09 10:21:57;;;;;;;;;;;;;;;-144.99;60.67;51891.69;4993206;28;19966;-69
2023/07/09 10:24:38;;;;;;;;;;;;;;;-144.99;60.70;51867.22;4988610;28;20192;-68
2023/07/09 10:27:10;;;;;;;;;;;;;;;-144.99;59.76;51852.97;4991755;28;19959;-67
2023/07/09 10:29:43;;;;;;;;;;;;;;;-144.99;59.82;51857.03;4987463;28;19972;-68
2023/07/09 10:32:17;;;;;;;;;;;;;;;-144.99;59.89;51859.09;4988173;28;19991;-69
2023/07/09 10:34:50;;;;;;;;;;;;;;;-144.99;59.87;51832.59;4981274;28;19940;-68
2023/07/09 10:37:22;;;;;;;;;;;;;;;-144.99;59.22;51850.94;4995781;28;19942;-68
2023/07/09 10:39:52;;;;;;;;;;;;;;;-144.99;60.04;51857.03;4987473;28;20319;-68
2023/07/09 10:42:23;;;;;;;;;;;;;;;-144.99;59.57;51836.66;4986870;28;19960;-68
2023/07/09 10:44:55;;;;;;;;;;;;;;;-144.99;58.86;51820.38;4990091;28;20374;-68
2023/07/09 10:47:28;;;;;;;;;;;;;;;-144.99;58.45;51824.44;4990973;28;19949;-68
2023/07/09 10:49:56;;;;;;;;;;;;;;;-144.99;58.56;51816.28;4989585;28;19962;-67
2023/07/09 10:52:29;;;;;;;;;;;;;;;-144.99;58.23;51844.81;5002484;28;20045;-68
2023/07/09 10:55:01;;;;;;;;;;;;;;;-144.99;58.00;51828.50;4986295;28;19946;-67
2023/07/09 10:57:31;;;;;;;;;;;;;;;-144.99;58.04;51791.84;4988638;28;19990;-68
2023/07/09 10:59:59;;;;;;;;;;;;;;;-144.99;58.34;51826.47;4989291;28;20219;-69
2023/07/09 11:02:26;;;;;;;;;;;;;;;-144.99;58.43;51828.50;4987845;28;19973;-68
2023/07/09 11:04:54;;;;;;;;;;;;;;;-144.99;58.62;51836.66;4990931;28;19945;-68
2023/07/09 11:07:24;;;;;;;;;;;;;;;-144.99;58.40;51791.84;4991717;28;20638;-68
2023/07/09 11:09:54;;;;;;;;;;;;;;;-144.99;58.40;51832.59;4986020;28;19949;-68
2023/07/09 11:12:24;;;;;;;;;;;;;;;-144.99;57.80;51848.91;4985875;28;19959;-69
2023/07/09 11:14:53;;;;;;;;;;;;;;;-144.99;58.63;51844.81;4986306;28;20310;-68
2023/07/09 11:17:21;;;;;;;;;;;;;;;-144.99;58.72;51861.13;4986622;28;19944;-68
2023/07/09 11:19:54;;;;;;;;;;;;;;;-144.99;58.54;51810.16;4986970;28;21462;-69
2023/07/09 11:22:22;;;;;;;;;;;;;;;-144.99;57.60;51795.91;4984359;28;19936;-68
2023/07/09 11:24:50;;;;;;;;;;;;;;;-144.99;58.24;51775.53;4987862;28;19941;-67
2023/07/09 11:27:18;;;;;;;;;;;;;;;-144.99;57.80;51791.84;4984195;28;19960;-68
2023/07/09 11:29:48;;;;;;;;;;;;;;;-144.99;57.20;51804.06;4986761;28;19944;-68
2023/07/09 11:32:22;;;;;;;;;;;;;;;-144.99;57.53;51816.28;4986276;28;19953;-68
2023/07/09 11:34:49;;;;;;;;;;;;;;;-144.99;57.55;51791.84;4986600;28;19947;-68
2023/07/09 11:37:16;;;;;;;;;;;;;;;-144.99;57.12;51840.75;4985508;28;20458;-68
2023/07/09 11:39:44;;;;;;;;;;;;;;;-144.99;56.36;51820.38;4987709;28;19948;-68
2023/07/09 11:42:24;;;;;;;;;;;;;;;-144.99;56.26;51775.53;4982280;28;19941;-68
2023/07/09 11:44:52;;;;;;;;;;;;;;;-144.99;55.53;51779.59;4993046;28;19947;-67
2023/07/09 11:47:22;;;;;;;;;;;;;;;-144.99;55.80;51787.75;4996076;28;19940;-68
2023/07/09 11:49:50;;;;;;;;;;;;;;;-144.99;56.35;51828.50;4991735;28;19942;-67
2023/07/09 11:52:21;;;;;;;;;;;;;;;-144.99;56.32;51836.66;4984979;28;19977;-68
2023/07/09 11:54:47;;;;;;;;;;;;;;;-144.99;56.10;51818.31;4988917;28;19947;-67
2023/07/09 11:57:14;;;;;;;;;;;;;;;-144.99;56.06;51820.38;4996508;28;20444;-69
2023/07/09 11:59:42;;;;;;;;;;;;;;;-144.99;55.86;51875.38;4985003;28;19942;-67
2023/07/09 12:02:15;;;;;;;;;;;;;;;-144.99;56.36;51873.34;4998682;28;19950;-68
2023/07/09 12:04:43;;;;;;;;;;;;;;;-144.99;56.16;51852.97;4985825;28;19977;-68
2023/07/09 12:07:13;;;;;;;;;;;;;;;-144.99;55.61;51861.13;4987549;28;19938;-68
2023/07/09 12:09:42;;;;;;;;;;;;;;;-144.99;55.73;51840.75;4987908;28;19939;-67
2023/07/09 12:12:17;;;;;;;;;;;;;;;-144.99;55.58;51828.50;4986068;28;20301;-67
2023/07/09 12:14:44;;;;;;;;;;;;;;;-144.99;55.48;51832.59;4983174;28;19977;-66
2023/07/09 12:17:10;;;;;;;;;;;;;;;-144.99;55.54;51852.97;4994711;28;19949;-67
2023/07/09 12:19:37;;;;;;;;;;;;;;;-144.99;55.66;51873.34;4988635;28;19941;-66
2023/07/09 12:22:07;;;;;;;;;;;;;;;-144.99;55.42;51865.19;4989167;28;19953;-67
2023/07/09 12:24:38;;;;;;;;;;;;;;;-144.99;55.50;51869.28;4989069;28;20430;-67
2023/07/09 12:27:17;;;;;;;;;;;;;;;-144.99;55.81;51877.44;4997181;28;19937;-68
2023/07/09 12:29:44;;;;;;;;;;;;;;;-144.99;55.27;51824.44;4994290;28;19954;-68